sensor_id;sensor_type;location;lat;lon;timestamp;temperature;humidity
7399;DHT22;3740;50.700;7.184;2023-02-15T00:01:52;4.50;99.90
7399;DHT22;3740;50.700;7.184;2023-02-15T00:04:23;4.60;99.90
7399;DHT22;3740;50.700;7.184;2023-02-15T00:06:50;4.50;99.90
7399;DHT22;3740;50.700;7.184;2023-02-15T00:09:16;4.60;99.90
7399;DHT22;3740;50.700;7.184;2023-02-15T00:11:42;4.50;99.90
7399;DHT22;3740;50.700;7.184;2023-02-15T00:14:24;4.50;99.90
7399;DHT22;3740;50.700;7.184;2023-02-15T00:16:51;4.40;99.90
7399;DHT22;3740;50.700;7.184;2023-02-15T00:19:19;4.40;99.90
7399;DHT22;3740;50.700;7.184;2023-02-15T00:21:46;4.30;99.90
7399;DHT22;3740;50.700;7.184;2023-02-15T00:24:13;4.20;99.90
7399;DHT22;3740;50.700;7.184;2023-02-15T00:26:40;4.20;99.90
7399;DHT22;3740;50.700;7.184;2023-02-15T00:29:06;4.20;99.90
7399;DHT22;3740;50.700;7.184;2023-02-15T00:31:33;4.10;99.90
7399;DHT22;3740;50.700;7.184;2023-02-15T00:34:18;4.10;99.90
7399;DHT22;3740;50.700;7.184;2023-02-15T00:36:45;4.00;99.90
7399;DHT22;3740;50.700;7.184;2023-02-15T00:39:11;4.00;99.90
7399;DHT22;3740;50.700;7.184;2023-02-15T00:41:37;3.80;99.90
7399;DHT22;3740;50.700;7.184;2023-02-15T00:44:03;3.70;99.90
7399;DHT22;3740;50.700;7.184;2023-02-15T00:46:29;3.70;99.90
7399;DHT22;3740;50.700;7.184;2023-02-15T00:48:55;3.70;99.90
7399;DHT22;3740;50.700;7.184;2023-02-15T00:51:20;3.70;99.90
7399;DHT22;3740;50.700;7.184;2023-02-15T00:53:46;3.70;99.90
7399;DHT22;3740;50.700;7.184;2023-02-15T00:56:12;3.60;99.90
7399;DHT22;3740;50.700;7.184;2023-02-15T00:58:37;3.50;99.90
7399;DHT22;3740;50.700;7.184;2023-02-15T01:01:06;3.50;99.90
7399;DHT22;3740;50.700;7.184;2023-02-15T01:03:32;3.60;99.90
7399;DHT22;3740;50.700;7.184;2023-02-15T01:05:57;3.70;99.90
7399;DHT22;3740;50.700;7.184;2023-02-15T01:08:23;3.90;99.90
7399;DHT22;3740;50.700;7.184;2023-02-15T01:10:48;4.00;99.90
7399;DHT22;3740;50.700;7.184;2023-02-15T01:13:15;4.10;99.90
7399;DHT22;3740;50.700;7.184;2023-02-15T01:15:42;4.10;99.90
7399;DHT22;3740;50.700;7.184;2023-02-15T01:18:08;4.10;99.90
7399;DHT22;3740;50.700;7.184;2023-02-15T01:20:36;4.00;99.90
7399;DHT22;3740;50.700;7.184;2023-02-15T01:23:05;3.90;99.90
7399;DHT22;3740;50.700;7.184;2023-02-15T01:25:33;3.80;99.90
7399;DHT22;3740;50.700;7.184;2023-02-15T01:27:59;3.90;99.90
7399;DHT22;3740;50.700;7.184;2023-02-15T01:30:25;3.80;99.90
7399;DHT22;3740;50.700;7.184;2023-02-15T01:32:50;3.70;99.90
7399;DHT22;3740;50.700;7.184;2023-02-15T01:35:16;3.60;99.90
7399;DHT22;3740;50.700;7.184;2023-02-15T01:37:41;3.50;99.90
7399;DHT22;3740;50.700;7.184;2023-02-15T01:40:13;3.40;99.90
7399;DHT22;3740;50.700;7.184;2023-02-15T01:42:39;3.50;99.90
7399;DHT22;3740;50.700;7.184;2023-02-15T01:45:28;3.40;99.90
7399;DHT22;3740;50.700;7.184;2023-02-15T01:48:17;3.30;99.90
7399;DHT22;3740;50.700;7.184;2023-02-15T01:50:50;3.30;99.90
7399;DHT22;3740;50.700;7.184;2023-02-15T01:53:27;3.10;99.90
7399;DHT22;3740;50.700;7.184;2023-02-15T01:55:57;3.10;99.90
7399;DHT22;3740;50.700;7.184;2023-02-15T01:58:25;3.00;99.90
7399;DHT22;3740;50.700;7.184;2023-02-15T02:00:51;3.10;99.90
7399;DHT22;3740;50.700;7.184;2023-02-15T02:03:19;3.10;99.90
7399;DHT22;3740;50.700;7.184;2023-02-15T02:05:51;3.20;99.90
7399;DHT22;3740;50.700;7.184;2023-02-15T02:08:17;3.40;99.90
7399;DHT22;3740;50.700;7.184;2023-02-15T02:10:43;3.50;99.90
7399;DHT22;3740;50.700;7.184;2023-02-15T02:13:08;3.50;99.90
7399;DHT22;3740;50.700;7.184;2023-02-15T02:22:11;3.50;99.90
7399;DHT22;3740;50.700;7.184;2023-02-15T02:35:22;3.50;99.90
7399;DHT22;3740;50.700;7.184;2023-02-15T02:38:14;3.50;99.90
7399;DHT22;3740;50.700;7.184;2023-02-15T02:40:52;3.40;99.90
7399;DHT22;3740;50.700;7.184;2023-02-15T02:46:17;3.30;99.90
7399;DHT22;3740;50.700;7.184;2023-02-15T02:48:46;3.20;99.90
7399;DHT22;3740;50.700;7.184;2023-02-15T02:51:13;3.20;99.90
7399;DHT22;3740;50.700;7.184;2023-02-15T02:53:45;3.10;99.90
7399;DHT22;3740;50.700;7.184;2023-02-15T02:56:21;3.10;99.90
7399;DHT22;3740;50.700;7.184;2023-02-15T02:59:08;3.10;99.90
7399;DHT22;3740;50.700;7.184;2023-02-15T03:01:44;3.20;99.90
7399;DHT22;3740;50.700;7.184;2023-02-15T03:04:15;3.20;99.90
7399;DHT22;3740;50.700;7.184;2023-02-15T03:07:04;3.20;99.90
7399;DHT22;3740;50.700;7.184;2023-02-15T03:09:37;3.10;99.90
7399;DHT22;3740;50.700;7.184;2023-02-15T03:14:38;3.10;99.90
7399;DHT22;3740;50.700;7.184;2023-02-15T03:17:04;3.10;99.90
7399;DHT22;3740;50.700;7.184;2023-02-15T03:19:34;3.10;99.90
7399;DHT22;3740;50.700;7.184;2023-02-15T03:22:05;3.10;99.90
7399;DHT22;3740;50.700;7.184;2023-02-15T03:27:26;3.10;99.90
7399;DHT22;3740;50.700;7.184;2023-02-15T03:29:56;3.10;99.90
7399;DHT22;3740;50.700;7.184;2023-02-15T03:32:23;3.10;99.90
7399;DHT22;3740;50.700;7.184;2023-02-15T03:34:51;3.20;99.90
7399;DHT22;3740;50.700;7.184;2023-02-15T03:37:35;3.10;99.90
7399;DHT22;3740;50.700;7.184;2023-02-15T03:40:11;3.10;99.90
7399;DHT22;3740;50.700;7.184;2023-02-15T03:43:17;3.20;99.90
7399;DHT22;3740;50.700;7.184;2023-02-15T03:45:48;3.20;99.90
7399;DHT22;3740;50.700;7.184;2023-02-15T03:48:32;3.20;99.90
7399;DHT22;3740;50.700;7.184;2023-02-15T03:51:03;3.20;99.90
7399;DHT22;3740;50.700;7.184;2023-02-15T03:53:50;3.10;99.90
7399;DHT22;3740;50.700;7.184;2023-02-15T03:56:15;3.10;99.90
7399;DHT22;3740;50.700;7.184;2023-02-15T03:58:41;3.00;99.90
7399;DHT22;3740;50.700;7.184;2023-02-15T04:01:33;3.00;99.90
7399;DHT22;3740;50.700;7.184;2023-02-15T04:04:21;3.10;99.90
7399;DHT22;3740;50.700;7.184;2023-02-15T04:06:48;3.00;99.90
7399;DHT22;3740;50.700;7.184;2023-02-15T04:09:13;3.00;99.90
7399;DHT22;3740;50.700;7.184;2023-02-15T04:11:58;3.00;99.90
7399;DHT22;3740;50.700;7.184;2023-02-15T04:14:23;3.00;99.90
7399;DHT22;3740;50.700;7.184;2023-02-15T04:17:08;3.00;99.90
7399;DHT22;3740;50.700;7.184;2023-02-15T04:19:34;2.90;99.90
7399;DHT22;3740;50.700;7.184;2023-02-15T04:22:19;3.00;99.90
7399;DHT22;3740;50.700;7.184;2023-02-15T04:25:03;3.00;99.90
7399;DHT22;3740;50.700;7.184;2023-02-15T04:27:42;2.90;99.90
7399;DHT22;3740;50.700;7.184;2023-02-15T04:30:09;3.00;99.90
7399;DHT22;3740;50.700;7.184;2023-02-15T04:32:35;3.00;99.90
7399;DHT22;3740;50.700;7.184;2023-02-15T04:35:02;3.00;99.90
7399;DHT22;3740;50.700;7.184;2023-02-15T04:37:27;2.90;99.90
7399;DHT22;3740;50.700;7.184;2023-02-15T04:39:53;2.90;99.90
7399;DHT22;3740;50.700;7.184;2023-02-15T04:44:47;2.80;99.90
7399;DHT22;3740;50.700;7.184;2023-02-15T04:47:12;2.90;99.90
7399;DHT22;3740;50.700;7.184;2023-02-15T04:49:38;2.80;99.90
7399;DHT22;3740;50.700;7.184;2023-02-15T04:52:03;2.80;99.90
7399;DHT22;3740;50.700;7.184;2023-02-15T04:54:29;2.80;99.90
7399;DHT22;3740;50.700;7.184;2023-02-15T04:56:54;2.80;99.90
7399;DHT22;3740;50.700;7.184;2023-02-15T04:59:20;2.80;99.90
7399;DHT22;3740;50.700;7.184;2023-02-15T05:01:46;2.80;99.90
7399;DHT22;3740;50.700;7.184;2023-02-15T05:04:11;2.80;99.90
7399;DHT22;3740;50.700;7.184;2023-02-15T05:06:37;2.80;99.90
7399;DHT22;3740;50.700;7.184;2023-02-15T05:09:03;2.90;99.90
7399;DHT22;3740;50.700;7.184;2023-02-15T05:11:28;2.90;99.90
7399;DHT22;3740;50.700;7.184;2023-02-15T05:13:54;2.80;99.90
7399;DHT22;3740;50.700;7.184;2023-02-15T05:16:19;2.80;99.90
7399;DHT22;3740;50.700;7.184;2023-02-15T05:18:45;2.80;99.90
7399;DHT22;3740;50.700;7.184;2023-02-15T05:21:10;2.80;99.90
7399;DHT22;3740;50.700;7.184;2023-02-15T05:23:36;2.70;99.90
7399;DHT22;3740;50.700;7.184;2023-02-15T05:26:02;2.80;99.90
7399;DHT22;3740;50.700;7.184;2023-02-15T05:28:46;2.80;99.90
7399;DHT22;3740;50.700;7.184;2023-02-15T05:31:19;2.80;99.90
7399;DHT22;3740;50.700;7.184;2023-02-15T05:33:44;2.80;99.90
7399;DHT22;3740;50.700;7.184;2023-02-15T05:36:10;2.80;99.90
7399;DHT22;3740;50.700;7.184;2023-02-15T05:38:37;2.80;99.90
7399;DHT22;3740;50.700;7.184;2023-02-15T05:41:07;2.70;99.90
7399;DHT22;3740;50.700;7.184;2023-02-15T05:43:33;2.80;99.90
7399;DHT22;3740;50.700;7.184;2023-02-15T05:46:00;2.90;99.90
7399;DHT22;3740;50.700;7.184;2023-02-15T05:48:26;2.90;99.90
7399;DHT22;3740;50.700;7.184;2023-02-15T05:51:10;3.00;99.90
7399;DHT22;3740;50.700;7.184;2023-02-15T05:53:38;2.90;99.90
7399;DHT22;3740;50.700;7.184;2023-02-15T05:56:05;2.80;99.90
7399;DHT22;3740;50.700;7.184;2023-02-15T05:58:37;2.80;99.90
7399;DHT22;3740;50.700;7.184;2023-02-15T06:01:14;3.00;99.90
7399;DHT22;3740;50.700;7.184;2023-02-15T06:03:40;3.10;99.90
7399;DHT22;3740;50.700;7.184;2023-02-15T06:06:06;3.00;99.90
7399;DHT22;3740;50.700;7.184;2023-02-15T06:08:33;2.90;99.90
7399;DHT22;3740;50.700;7.184;2023-02-15T06:10:59;2.80;99.90
7399;DHT22;3740;50.700;7.184;2023-02-15T06:13:25;2.70;99.90
7399;DHT22;3740;50.700;7.184;2023-02-15T06:15:50;2.70;99.90
7399;DHT22;3740;50.700;7.184;2023-02-15T06:18:16;2.60;99.90
7399;DHT22;3740;50.700;7.184;2023-02-15T06:20:42;2.70;99.90
7399;DHT22;3740;50.700;7.184;2023-02-15T06:23:07;2.60;99.90
7399;DHT22;3740;50.700;7.184;2023-02-15T06:25:33;2.60;99.90
7399;DHT22;3740;50.700;7.184;2023-02-15T06:27:58;2.60;99.90
7399;DHT22;3740;50.700;7.184;2023-02-15T06:30:24;2.60;99.90
7399;DHT22;3740;50.700;7.184;2023-02-15T06:32:49;2.60;99.90
7399;DHT22;3740;50.700;7.184;2023-02-15T06:35:15;2.60;99.90
7399;DHT22;3740;50.700;7.184;2023-02-15T06:37:41;2.60;99.90
7399;DHT22;3740;50.700;7.184;2023-02-15T06:40:07;2.60;99.90
7399;DHT22;3740;50.700;7.184;2023-02-15T06:42:33;2.60;99.90
7399;DHT22;3740;50.700;7.184;2023-02-15T06:44:59;2.70;99.90
7399;DHT22;3740;50.700;7.184;2023-02-15T06:47:25;2.70;99.90
7399;DHT22;3740;50.700;7.184;2023-02-15T06:49:51;2.60;99.90
7399;DHT22;3740;50.700;7.184;2023-02-15T06:52:16;2.60;99.90
7399;DHT22;3740;50.700;7.184;2023-02-15T06:54:42;2.60;99.90
7399;DHT22;3740;50.700;7.184;2023-02-15T06:57:08;2.60;99.90
7399;DHT22;3740;50.700;7.184;2023-02-15T06:59:34;2.60;99.90
7399;DHT22;3740;50.700;7.184;2023-02-15T07:02:00;2.60;99.90
7399;DHT22;3740;50.700;7.184;2023-02-15T07:04:25;2.60;99.90
7399;DHT22;3740;50.700;7.184;2023-02-15T07:06:54;2.70;99.90
7399;DHT22;3740;50.700;7.184;2023-02-15T07:09:19;2.70;99.90
7399;DHT22;3740;50.700;7.184;2023-02-15T07:11:45;2.70;99.90
7399;DHT22;3740;50.700;7.184;2023-02-15T07:14:29;2.40;99.90
7399;DHT22;3740;50.700;7.184;2023-02-15T07:16:55;2.70;99.90
7399;DHT22;3740;50.700;7.184;2023-02-15T07:19:21;2.60;99.90
7399;DHT22;3740;50.700;7.184;2023-02-15T07:21:46;2.70;99.90
7399;DHT22;3740;50.700;7.184;2023-02-15T07:24:12;2.70;99.90
7399;DHT22;3740;50.700;7.184;2023-02-15T07:26:37;2.70;99.90
7399;DHT22;3740;50.700;7.184;2023-02-15T07:29:03;2.70;99.90
7399;DHT22;3740;50.700;7.184;2023-02-15T07:31:29;2.70;99.90
7399;DHT22;3740;50.700;7.184;2023-02-15T07:33:54;2.70;99.90
7399;DHT22;3740;50.700;7.184;2023-02-15T07:36:20;2.80;99.90
7399;DHT22;3740;50.700;7.184;2023-02-15T07:38:46;2.70;99.90
7399;DHT22;3740;50.700;7.184;2023-02-15T07:41:14;2.70;99.90
7399;DHT22;3740;50.700;7.184;2023-02-15T07:43:42;2.70;99.90
7399;DHT22;3740;50.700;7.184;2023-02-15T07:46:10;2.70;99.90
7399;DHT22;3740;50.700;7.184;2023-02-15T07:48:37;2.70;99.90
7399;DHT22;3740;50.700;7.184;2023-02-15T07:51:06;2.80;99.90
7399;DHT22;3740;50.700;7.184;2023-02-15T07:53:33;2.80;99.90
7399;DHT22;3740;50.700;7.184;2023-02-15T07:56:12;2.90;99.90
7399;DHT22;3740;50.700;7.184;2023-02-15T07:58:38;2.90;99.90
7399;DHT22;3740;50.700;7.184;2023-02-15T08:03:48;2.90;99.90
7399;DHT22;3740;50.700;7.184;2023-02-15T08:06:14;3.00;99.90
7399;DHT22;3740;50.700;7.184;2023-02-15T08:08:40;3.00;99.90
7399;DHT22;3740;50.700;7.184;2023-02-15T08:11:17;3.00;99.90
7399;DHT22;3740;50.700;7.184;2023-02-15T08:16:41;3.20;99.90
7399;DHT22;3740;50.700;7.184;2023-02-15T08:19:18;3.20;99.90
7399;DHT22;3740;50.700;7.184;2023-02-15T08:21:51;3.20;99.90
7399;DHT22;3740;50.700;7.184;2023-02-15T08:24:19;3.20;99.90
7399;DHT22;3740;50.700;7.184;2023-02-15T08:26:45;3.20;99.90
7399;DHT22;3740;50.700;7.184;2023-02-15T08:29:12;3.30;99.90
7399;DHT22;3740;50.700;7.184;2023-02-15T08:31:39;3.30;99.90
7399;DHT22;3740;50.700;7.184;2023-02-15T08:34:07;3.30;99.90
7399;DHT22;3740;50.700;7.184;2023-02-15T08:36:33;3.40;99.90
7399;DHT22;3740;50.700;7.184;2023-02-15T08:39:01;3.50;99.90
7399;DHT22;3740;50.700;7.184;2023-02-15T08:41:29;3.50;99.90
7399;DHT22;3740;50.700;7.184;2023-02-15T08:43:56;3.50;99.90
7399;DHT22;3740;50.700;7.184;2023-02-15T08:46:24;3.60;99.90
7399;DHT22;3740;50.700;7.184;2023-02-15T08:48:50;3.60;99.90
7399;DHT22;3740;50.700;7.184;2023-02-15T08:51:24;3.60;99.90
7399;DHT22;3740;50.700;7.184;2023-02-15T08:53:52;3.70;99.90
7399;DHT22;3740;50.700;7.184;2023-02-15T08:56:21;3.70;99.90
7399;DHT22;3740;50.700;7.184;2023-02-15T08:58:46;3.70;99.90
7399;DHT22;3740;50.700;7.184;2023-02-15T09:01:14;3.70;99.90
7399;DHT22;3740;50.700;7.184;2023-02-15T09:03:47;3.80;99.90
7399;DHT22;3740;50.700;7.184;2023-02-15T09:06:13;3.90;99.90
7399;DHT22;3740;50.700;7.184;2023-02-15T09:08:39;4.00;99.90
7399;DHT22;3740;50.700;7.184;2023-02-15T09:11:07;4.10;99.90
7399;DHT22;3740;50.700;7.184;2023-02-15T09:13:33;4.10;99.90
7399;DHT22;3740;50.700;7.184;2023-02-15T09:16:04;4.10;99.90
7399;DHT22;3740;50.700;7.184;2023-02-15T09:18:36;4.10;99.90
7399;DHT22;3740;50.700;7.184;2023-02-15T09:21:17;4.20;99.90
7399;DHT22;3740;50.700;7.184;2023-02-15T09:23:44;4.20;99.90
7399;DHT22;3740;50.700;7.184;2023-02-15T09:26:12;4.30;99.90
7399;DHT22;3740;50.700;7.184;2023-02-15T09:28:38;4.30;99.90
7399;DHT22;3740;50.700;7.184;2023-02-15T09:33:33;4.40;99.90
7399;DHT22;3740;50.700;7.184;2023-02-15T09:36:00;4.40;99.90
7399;DHT22;3740;50.700;7.184;2023-02-15T09:38:25;4.50;99.90
7399;DHT22;3740;50.700;7.184;2023-02-15T09:49:32;4.70;99.90
7399;DHT22;3740;50.700;7.184;2023-02-15T09:52:06;4.70;99.90
7399;DHT22;3740;50.700;7.184;2023-02-15T09:54:51;4.80;99.90
7399;DHT22;3740;50.700;7.184;2023-02-15T10:00:15;4.90;99.90
7399;DHT22;3740;50.700;7.184;2023-02-15T10:05:39;5.00;99.90
7399;DHT22;3740;50.700;7.184;2023-02-15T10:11:21;5.40;99.90
7399;DHT22;3740;50.700;7.184;2023-02-15T10:22:57;8.90;99.90
7399;DHT22;3740;50.700;7.184;2023-02-15T10:25:40;11.80;99.90
7399;DHT22;3740;50.700;7.184;2023-02-15T10:28:14;13.00;99.90
7399;DHT22;3740;50.700;7.184;2023-02-15T10:30:49;13.70;98.80
7399;DHT22;3740;50.700;7.184;2023-02-15T10:33:40;15.00;96.90
7399;DHT22;3740;50.700;7.184;2023-02-15T10:39:09;16.50;91.60
7399;DHT22;3740;50.700;7.184;2023-02-15T10:41:42;17.20;91.20
7399;DHT22;3740;50.700;7.184;2023-02-15T10:44:30;18.10;86.30
7399;DHT22;3740;50.700;7.184;2023-02-15T10:55:44;18.70;81.50
7399;DHT22;3740;50.700;7.184;2023-02-15T10:58:17;18.70;78.90
7399;DHT22;3740;50.700;7.184;2023-02-15T11:00:49;18.70;80.10
7399;DHT22;3740;50.700;7.184;2023-02-15T11:03:23;19.40;76.20
7399;DHT22;3740;50.700;7.184;2023-02-15T11:06:11;19.30;77.30
7399;DHT22;3740;50.700;7.184;2023-02-15T11:08:48;19.50;76.30
7399;DHT22;3740;50.700;7.184;2023-02-15T11:11:22;19.50;74.20
7399;DHT22;3740;50.700;7.184;2023-02-15T11:13:52;19.40;75.40
7399;DHT22;3740;50.700;7.184;2023-02-15T11:16:46;19.00;75.30
7399;DHT22;3740;50.700;7.184;2023-02-15T11:19:22;18.90;74.50
7399;DHT22;3740;50.700;7.184;2023-02-15T11:21:50;18.70;74.30
7399;DHT22;3740;50.700;7.184;2023-02-15T11:24:20;18.70;75.10
7399;DHT22;3740;50.700;7.184;2023-02-15T11:26:59;19.30;74.50
7399;DHT22;3740;50.700;7.184;2023-02-15T11:29:33;19.30;72.40
7399;DHT22;3740;50.700;7.184;2023-02-15T11:32:17;19.30;73.00
7399;DHT22;3740;50.700;7.184;2023-02-15T11:37:20;19.80;72.20
7399;DHT22;3740;50.700;7.184;2023-02-15T11:39:46;19.80;71.90
7399;DHT22;3740;50.700;7.184;2023-02-15T11:42:20;19.50;71.70
7399;DHT22;3740;50.700;7.184;2023-02-15T11:47:52;19.50;72.00
7399;DHT22;3740;50.700;7.184;2023-02-15T11:50:23;19.60;73.60
7399;DHT22;3740;50.700;7.184;2023-02-15T11:52:51;19.70;70.60
7399;DHT22;3740;50.700;7.184;2023-02-15T11:55:21;18.90;71.00
7399;DHT22;3740;50.700;7.184;2023-02-15T11:58:16;18.60;72.10
7399;DHT22;3740;50.700;7.184;2023-02-15T12:00:51;18.50;73.20
7399;DHT22;3740;50.700;7.184;2023-02-15T12:03:24;17.90;74.50
7399;DHT22;3740;50.700;7.184;2023-02-15T12:06:04;18.10;75.90
7399;DHT22;3740;50.700;7.184;2023-02-15T12:08:38;18.00;74.40
7399;DHT22;3740;50.700;7.184;2023-02-15T12:11:10;18.30;74.30
7399;DHT22;3740;50.700;7.184;2023-02-15T12:14:07;18.40;74.60
7399;DHT22;3740;50.700;7.184;2023-02-15T12:16:50;18.50;74.20
7399;DHT22;3740;50.700;7.184;2023-02-15T12:19:52;18.40;73.40
7399;DHT22;3740;50.700;7.184;2023-02-15T12:22:23;17.90;74.80
7399;DHT22;3740;50.700;7.184;2023-02-15T12:24:51;17.60;76.70
7399;DHT22;3740;50.700;7.184;2023-02-15T12:27:29;17.30;77.90
7399;DHT22;3740;50.700;7.184;2023-02-15T12:29:59;17.10;78.10
7399;DHT22;3740;50.700;7.184;2023-02-15T12:32:31;16.90;79.60
7399;DHT22;3740;50.700;7.184;2023-02-15T12:35:27;16.40;80.50
7399;DHT22;3740;50.700;7.184;2023-02-15T12:40:37;16.50;82.00
7399;DHT22;3740;50.700;7.184;2023-02-15T12:43:04;16.50;83.10
7399;DHT22;3740;50.700;7.184;2023-02-15T12:45:36;16.10;83.50
7399;DHT22;3740;50.700;7.184;2023-02-15T12:48:19;16.10;83.70
7399;DHT22;3740;50.700;7.184;2023-02-15T12:50:49;15.50;87.40
7399;DHT22;3740;50.700;7.184;2023-02-15T12:53:33;15.50;86.40
7399;DHT22;3740;50.700;7.184;2023-02-15T12:56:04;15.30;89.20
7399;DHT22;3740;50.700;7.184;2023-02-15T12:58:32;15.50;88.80
7399;DHT22;3740;50.700;7.184;2023-02-15T13:01:19;15.60;88.30
7399;DHT22;3740;50.700;7.184;2023-02-15T13:06:17;14.70;90.50
7399;DHT22;3740;50.700;7.184;2023-02-15T13:08:55;14.60;91.50
7399;DHT22;3740;50.700;7.184;2023-02-15T13:11:26;14.70;91.40
7399;DHT22;3740;50.700;7.184;2023-02-15T13:14:03;14.90;91.60
7399;DHT22;3740;50.700;7.184;2023-02-15T13:16:35;14.70;91.10
7399;DHT22;3740;50.700;7.184;2023-02-15T13:21:54;14.80;91.50
7399;DHT22;3740;50.700;7.184;2023-02-15T13:26:48;14.50;91.60
7399;DHT22;3740;50.700;7.184;2023-02-15T13:29:22;14.10;92.50
7399;DHT22;3740;50.700;7.184;2023-02-15T13:31:50;14.40;92.80
7399;DHT22;3740;50.700;7.184;2023-02-15T13:34:31;14.20;93.20
7399;DHT22;3740;50.700;7.184;2023-02-15T13:39:51;14.30;93.20
7399;DHT22;3740;50.700;7.184;2023-02-15T13:42:42;14.30;93.20
7399;DHT22;3740;50.700;7.184;2023-02-15T13:50:36;14.30;93.90
7399;DHT22;3740;50.700;7.184;2023-02-15T13:55:39;14.20;94.20
7399;DHT22;3740;50.700;7.184;2023-02-15T13:58:23;14.40;94.00
7399;DHT22;3740;50.700;7.184;2023-02-15T14:03:52;14.30;94.20
7399;DHT22;3740;50.700;7.184;2023-02-15T14:09:37;14.60;94.80
7399;DHT22;3740;50.700;7.184;2023-02-15T14:12:37;14.90;93.80
7399;DHT22;3740;50.700;7.184;2023-02-15T14:23:38;14.40;94.50
7399;DHT22;3740;50.700;7.184;2023-02-15T14:26:17;14.40;94.50
7399;DHT22;3740;50.700;7.184;2023-02-15T14:31:15;14.50;95.00
7399;DHT22;3740;50.700;7.184;2023-02-15T14:33:53;14.50;94.60
7399;DHT22;3740;50.700;7.184;2023-02-15T14:36:20;14.50;94.90
7399;DHT22;3740;50.700;7.184;2023-02-15T14:39:02;14.50;94.90
7399;DHT22;3740;50.700;7.184;2023-02-15T14:41:53;14.50;95.10
7399;DHT22;3740;50.700;7.184;2023-02-15T14:44:40;14.50;94.90
7399;DHT22;3740;50.700;7.184;2023-02-15T14:47:22;14.50;95.30
7399;DHT22;3740;50.700;7.184;2023-02-15T14:49:50;14.40;95.10
7399;DHT22;3740;50.700;7.184;2023-02-15T14:52:16;14.30;95.40
7399;DHT22;3740;50.700;7.184;2023-02-15T15:00:05;14.10;96.20
7399;DHT22;3740;50.700;7.184;2023-02-15T15:02:45;14.30;96.30
7399;DHT22;3740;50.700;7.184;2023-02-15T15:07:52;13.90;96.60
7399;DHT22;3740;50.700;7.184;2023-02-15T15:12:50;13.80;97.20
7399;DHT22;3740;50.700;7.184;2023-02-15T15:21:03;13.70;97.80
7399;DHT22;3740;50.700;7.184;2023-02-15T15:23:47;13.70;98.20
7399;DHT22;3740;50.700;7.184;2023-02-15T15:26:22;13.70;98.30
7399;DHT22;3740;50.700;7.184;2023-02-15T15:31:24;13.70;98.20
7399;DHT22;3740;50.700;7.184;2023-02-15T15:45:27;13.00;99.70
7399;DHT22;3740;50.700;7.184;2023-02-15T15:48:15;13.10;99.90
7399;DHT22;3740;50.700;7.184;2023-02-15T15:50:43;13.10;99.70
7399;DHT22;3740;50.700;7.184;2023-02-15T15:53:20;13.10;99.60
7399;DHT22;3740;50.700;7.184;2023-02-15T15:55:49;13.10;99.80
7399;DHT22;3740;50.700;7.184;2023-02-15T15:58:17;13.00;99.90
7399;DHT22;3740;50.700;7.184;2023-02-15T16:00:49;12.80;99.90
7399;DHT22;3740;50.700;7.184;2023-02-15T16:03:22;12.70;99.90
7399;DHT22;3740;50.700;7.184;2023-02-15T16:05:47;12.60;99.90
7399;DHT22;3740;50.700;7.184;2023-02-15T16:08:30;12.60;99.90
7399;DHT22;3740;50.700;7.184;2023-02-15T16:10:56;12.60;99.90
7399;DHT22;3740;50.700;7.184;2023-02-15T16:13:23;12.60;99.90
7399;DHT22;3740;50.700;7.184;2023-02-15T16:15:53;12.50;99.90
7399;DHT22;3740;50.700;7.184;2023-02-15T16:18:23;12.40;99.90
7399;DHT22;3740;50.700;7.184;2023-02-15T16:21:01;12.30;99.90
7399;DHT22;3740;50.700;7.184;2023-02-15T16:26:18;12.20;99.90
7399;DHT22;3740;50.700;7.184;2023-02-15T16:28:50;12.10;99.90
7399;DHT22;3740;50.700;7.184;2023-02-15T16:31:17;12.00;99.90
7399;DHT22;3740;50.700;7.184;2023-02-15T16:33:43;12.00;99.90
7399;DHT22;3740;50.700;7.184;2023-02-15T16:43:49;11.70;99.90
7399;DHT22;3740;50.700;7.184;2023-02-15T16:46:36;11.60;99.90
7399;DHT22;3740;50.700;7.184;2023-02-15T16:49:27;11.50;99.90
7399;DHT22;3740;50.700;7.184;2023-02-15T16:51:57;11.40;99.90
7399;DHT22;3740;50.700;7.184;2023-02-15T16:54:24;11.30;99.90
7399;DHT22;3740;50.700;7.184;2023-02-15T16:56:51;11.20;99.90
7399;DHT22;3740;50.700;7.184;2023-02-15T17:01:52;11.10;99.90
7399;DHT22;3740;50.700;7.184;2023-02-15T17:07:03;11.00;99.90
7399;DHT22;3740;50.700;7.184;2023-02-15T17:09:29;10.90;99.90
7399;DHT22;3740;50.700;7.184;2023-02-15T17:11:55;10.90;99.90
7399;DHT22;3740;50.700;7.184;2023-02-15T17:14:37;10.80;99.90
7399;DHT22;3740;50.700;7.184;2023-02-15T17:17:07;10.80;99.90
7399;DHT22;3740;50.700;7.184;2023-02-15T17:19:52;10.70;99.90
7399;DHT22;3740;50.700;7.184;2023-02-15T17:22:22;10.60;99.90
7399;DHT22;3740;50.700;7.184;2023-02-15T17:24:50;10.60;99.90
7399;DHT22;3740;50.700;7.184;2023-02-15T17:27:25;10.60;99.90
7399;DHT22;3740;50.700;7.184;2023-02-15T17:29:59;10.60;99.90
7399;DHT22;3740;50.700;7.184;2023-02-15T17:32:27;10.40;99.90
7399;DHT22;3740;50.700;7.184;2023-02-15T17:35:16;10.40;99.90
7399;DHT22;3740;50.700;7.184;2023-02-15T17:37:47;10.40;99.90
7399;DHT22;3740;50.700;7.184;2023-02-15T17:42:44;10.30;99.90
7399;DHT22;3740;50.700;7.184;2023-02-15T17:45:10;10.30;99.90
7399;DHT22;3740;50.700;7.184;2023-02-15T17:47:35;10.30;99.90
7399;DHT22;3740;50.700;7.184;2023-02-15T17:50:03;10.30;99.90
7399;DHT22;3740;50.700;7.184;2023-02-15T17:52:30;10.30;99.90
7399;DHT22;3740;50.700;7.184;2023-02-15T17:54:59;10.20;99.90
7399;DHT22;3740;50.700;7.184;2023-02-15T17:57:49;10.20;99.90
7399;DHT22;3740;50.700;7.184;2023-02-15T18:00:15;10.10;99.90
7399;DHT22;3740;50.700;7.184;2023-02-15T18:03:00;10.10;99.90
7399;DHT22;3740;50.700;7.184;2023-02-15T18:05:44;9.90;99.90
7399;DHT22;3740;50.700;7.184;2023-02-15T18:08:28;9.90;99.90
7399;DHT22;3740;50.700;7.184;2023-02-15T18:11:13;9.80;99.90
7399;DHT22;3740;50.700;7.184;2023-02-15T18:13:57;9.90;99.90
7399;DHT22;3740;50.700;7.184;2023-02-15T18:16:28;9.70;99.90
7399;DHT22;3740;50.700;7.184;2023-02-15T18:18:55;9.70;99.90
7399;DHT22;3740;50.700;7.184;2023-02-15T18:21:21;9.70;99.90
7399;DHT22;3740;50.700;7.184;2023-02-15T18:23:47;9.70;99.90
7399;DHT22;3740;50.700;7.184;2023-02-15T18:26:19;9.70;99.90
7399;DHT22;3740;50.700;7.184;2023-02-15T18:28:44;9.80;99.90
7399;DHT22;3740;50.700;7.184;2023-02-15T18:31:10;9.80;99.90
7399;DHT22;3740;50.700;7.184;2023-02-15T18:33:43;9.70;99.90
7399;DHT22;3740;50.700;7.184;2023-02-15T18:36:14;9.70;99.90
7399;DHT22;3740;50.700;7.184;2023-02-15T18:38:41;9.70;99.90
7399;DHT22;3740;50.700;7.184;2023-02-15T18:41:08;9.70;99.90
7399;DHT22;3740;50.700;7.184;2023-02-15T18:43:34;9.60;99.90
7399;DHT22;3740;50.700;7.184;2023-02-15T18:46:00;9.60;99.90
7399;DHT22;3740;50.700;7.184;2023-02-15T18:48:25;9.60;99.90
7399;DHT22;3740;50.700;7.184;2023-02-15T18:50:51;9.50;99.90
7399;DHT22;3740;50.700;7.184;2023-02-15T18:53:19;9.40;99.90
7399;DHT22;3740;50.700;7.184;2023-02-15T18:55:45;9.30;99.90
7399;DHT22;3740;50.700;7.184;2023-02-15T18:58:19;9.30;99.90
7399;DHT22;3740;50.700;7.184;2023-02-15T19:00:45;9.20;99.90
7399;DHT22;3740;50.700;7.184;2023-02-15T19:03:13;9.20;99.90
7399;DHT22;3740;50.700;7.184;2023-02-15T19:05:41;9.10;99.90
7399;DHT22;3740;50.700;7.184;2023-02-15T19:08:17;9.10;99.90
7399;DHT22;3740;50.700;7.184;2023-02-15T19:10:44;9.10;99.90
7399;DHT22;3740;50.700;7.184;2023-02-15T19:13:11;9.10;99.90
7399;DHT22;3740;50.700;7.184;2023-02-15T19:15:37;9.10;99.90
7399;DHT22;3740;50.700;7.184;2023-02-15T19:18:03;9.10;99.90
7399;DHT22;3740;50.700;7.184;2023-02-15T19:20:36;9.00;99.90
7399;DHT22;3740;50.700;7.184;2023-02-15T19:23:06;9.00;99.90
7399;DHT22;3740;50.700;7.184;2023-02-15T19:25:33;9.00;99.90